MV Causeway Supplier — ZR2426 — position and weather

sailwx.info

Track history (hours):
 
Tides and Currents Weather Stations Pressure Air Temp Water Temp Dewpoint Dewpoint Depression Visibility Wind Speed Wind Dir Waves Ship Positions

MV Causeway Supplier

Last reported at 2015-May-23 10:07 UTC. Time now 2015-May-25 09:26 UTC.
Position S 29°54' E 031°00'.

Length 22 m; draft 2.7 m.

Type: . MMSI: 601041200.

Date/timePositionNaut miles runAvg speedWind from/ knotsBaromVisibWave heightAir tempDewpointWater temp
2015-May-23 10:07S 29°54' E 031°00'4 2.4
2015-May-23 08:33S 29°52' E 031°04'5 2.3
2015-May-23 06:14S 29°54' E 031°10'3 4.6
2015-May-23 05:33S 29°53' E 031°06'5 5.0
2015-May-23 04:32S 29°54' E 031°00'0 0.0
2015-May-23 03:32S 29°54' E 031°00'0 0.0
2015-May-23 02:18S 29°54' E 031°00'0 0.0
2015-May-23 01:28S 29°54' E 031°00'0 0.0
2015-May-22 08:03S 29°54' E 031°00'0 0.0
2015-May-22 07:32S 29°54' E 031°00'0 0.0
2015-May-22 06:27S 29°54' E 031°00'0 0.0
2015-May-20 12:31S 29°54' E 031°00'8 7.9
2015-May-20 11:33S 29°51' E 031°09'2 1.6
2015-May-20 10:33S 29°51' E 031°10'1 0.8
2015-May-20 09:33S 29°52' E 031°10'2 2.3
2015-May-20 08:33S 29°52' E 031°07'6 0.6
2015-May-19 21:23S 29°54' E 031°00'0 0.0
2015-May-19 15:14S 29°54' E 031°00'3 4.7
2015-May-19 14:33S 29°52' E 031°03'6 5.8
2015-May-19 13:33S 29°47' E 031°07'0 0.0
2015-May-19 12:33S 29°47' E 031°07'7 7.1
2015-May-19 11:33S 29°52' E 031°01'2 1.9
2015-May-19 10:32S 29°54' E 031°00'0 0.0
2015-May-19 09:33S 29°54' E 031°00'0 0.0
2015-May-19 08:32S 29°54' E 031°00'0 0.0
2015-May-19 07:32S 29°54' E 031°00'0 0.0
2015-May-18 23:12S 29°54' E 031°00'3 4.8
2015-May-18 22:33S 29°52' E 031°03'3 3.5
2015-May-18 21:33S 29°53' E 031°07'2 1.7
2015-May-18 20:34S 29°52' E 031°08'4 3.7
2015-May-18 19:32S 29°52' E 031°03'3 2.7
2015-May-18 18:19S 29°54' E 031°00'0 0.0
2015-May-18 17:29S 29°54' E 031°00'10 2.0
2015-May-18 12:32S 29°53' E 031°12'10 4.6
2015-May-18 10:25S 29°53' E 031°00'1 0.0
2015-May-16 11:15S 29°52' E 031°01'6 7.9
2015-May-16 10:33S 29°51' E 031°07'4 3.7
2015-May-16 09:33S 29°51' E 031°11'0 0.5
2015-May-16 08:33S 29°51' E 031°11'7 6.7
2015-May-16 07:33S 29°52' E 031°03'2 0.1
2015-May-15 17:33S 29°52' E 031°01'6 5.2
2015-May-15 16:20S 29°53' E 031°08'2 2.4
2015-May-15 15:33S 29°52' E 031°06'5 5.2
2015-May-15 14:32S 29°53' E 031°00'5 1.1
2015-May-15 10:21S 29°53' E 031°06'2 0.7
2015-May-15 08:09S 29°52' E 031°04'3 4.9
2015-May-15 07:32S 29°52' E 031°01'2 0.9
2015-May-15 05:23S 29°54' E 031°00'0 0.0
2015-May-15 03:29S 29°54' E 031°00'0 0.0
2015-May-13 21:32S 29°54' E 031°00'0 0.0
2015-May-13 20:33S 29°54' E 031°00'0 0.0
2015-May-13 14:15S 29°54' E 031°00'0 0.0
2015-May-13 13:27S 29°54' E 031°00'0 0.0
2015-May-13 12:32S 29°54' E 031°00'0 0.0
2015-May-13 11:30S 29°54' E 031°00'2 1.8
2015-May-13 10:29S 29°52' E 031°01'  
Track history (hours):
 
Tides and Currents Weather Stations Pressure Air Temp Water Temp Dewpoint Dewpoint Depression Visibility Wind Speed Wind Dir Waves Ship Positions

MV Causeway Supplier

Last reported at 2015-May-23 10:07 UTC. Time now 2015-May-25 09:26 UTC.
Position S 29°54' E 031°00'.

Length 22 m; draft 2.7 m.

Type: . MMSI: 601041200.

Date/timePositionNaut miles runAvg speedWind from/ knotsBaromVisibWave heightAir tempDewpointWater temp
2015-May-23 10:07S 29°54' E 031°00'4 2.4
2015-May-23 08:33S 29°52' E 031°04'5 2.3
2015-May-23 06:14S 29°54' E 031°10'3 4.6
2015-May-23 05:33S 29°53' E 031°06'5 5.0
2015-May-23 04:32S 29°54' E 031°00'0 0.0
2015-May-23 03:32S 29°54' E 031°00'0 0.0
2015-May-23 02:18S 29°54' E 031°00'0 0.0
2015-May-23 01:28S 29°54' E 031°00'0 0.0
2015-May-22 08:03S 29°54' E 031°00'0 0.0
2015-May-22 07:32S 29°54' E 031°00'0 0.0
2015-May-22 06:27S 29°54' E 031°00'0 0.0
2015-May-20 12:31S 29°54' E 031°00'8 7.9
2015-May-20 11:33S 29°51' E 031°09'2 1.6
2015-May-20 10:33S 29°51' E 031°10'1 0.8
2015-May-20 09:33S 29°52' E 031°10'2 2.3
2015-May-20 08:33S 29°52' E 031°07'6 0.6
2015-May-19 21:23S 29°54' E 031°00'0 0.0
2015-May-19 15:14S 29°54' E 031°00'3 4.7
2015-May-19 14:33S 29°52' E 031°03'6 5.8
2015-May-19 13:33S 29°47' E 031°07'0 0.0
2015-May-19 12:33S 29°47' E 031°07'7 7.1
2015-May-19 11:33S 29°52' E 031°01'2 1.9
2015-May-19 10:32S 29°54' E 031°00'0 0.0
2015-May-19 09:33S 29°54' E 031°00'0 0.0
2015-May-19 08:32S 29°54' E 031°00'0 0.0
2015-May-19 07:32S 29°54' E 031°00'0 0.0
2015-May-18 23:12S 29°54' E 031°00'3 4.8
2015-May-18 22:33S 29°52' E 031°03'3 3.5
2015-May-18 21:33S 29°53' E 031°07'2 1.7
2015-May-18 20:34S 29°52' E 031°08'4 3.7
2015-May-18 19:32S 29°52' E 031°03'3 2.7
2015-May-18 18:19S 29°54' E 031°00'0 0.0
2015-May-18 17:29S 29°54' E 031°00'10 2.0
2015-May-18 12:32S 29°53' E 031°12'10 4.6
2015-May-18 10:25S 29°53' E 031°00'1 0.0
2015-May-16 11:15S 29°52' E 031°01'6 7.9
2015-May-16 10:33S 29°51' E 031°07'4 3.7
2015-May-16 09:33S 29°51' E 031°11'0 0.5
2015-May-16 08:33S 29°51' E 031°11'7 6.7
2015-May-16 07:33S 29°52' E 031°03'2 0.1
2015-May-15 17:33S 29°52' E 031°01'6 5.2
2015-May-15 16:20S 29°53' E 031°08'2 2.4
2015-May-15 15:33S 29°52' E 031°06'5 5.2
2015-May-15 14:32S 29°53' E 031°00'5 1.1
2015-May-15 10:21S 29°53' E 031°06'2 0.7
2015-May-15 08:09S 29°52' E 031°04'3 4.9
2015-May-15 07:32S 29°52' E 031°01'2 0.9
2015-May-15 05:23S 29°54' E 031°00'0 0.0
2015-May-15 03:29S 29°54' E 031°00'0 0.0
2015-May-13 21:32S 29°54' E 031°00'0 0.0
2015-May-13 20:33S 29°54' E 031°00'0 0.0
2015-May-13 14:15S 29°54' E 031°00'0 0.0
2015-May-13 13:27S 29°54' E 031°00'0 0.0
2015-May-13 12:32S 29°54' E 031°00'0 0.0
2015-May-13 11:30S 29°54' E 031°00'2 1.8
2015-May-13 10:29S 29°52' E 031°01'  

Dump ship's entire track history